sensor_id;sensor_type;location;lat;lon;timestamp;pressure;altitude;pressure_sealevel;temperature;humidity
12215;BME280;6170;42.206;24.142;2023-01-29T00:01:16;98996.78;;;3.30;75.87
12215;BME280;6170;42.206;24.142;2023-01-29T00:03:44;99011.47;;;3.42;75.02
12215;BME280;6170;42.206;24.142;2023-01-29T00:06:11;99011.06;;;3.37;75.08
12215;BME280;6170;42.206;24.142;2023-01-29T00:08:38;99010.72;;;3.49;75.06
12215;BME280;6170;42.206;24.142;2023-01-29T00:11:06;99008.81;;;3.42;75.31
12215;BME280;6170;42.206;24.142;2023-01-29T00:13:33;99021.22;;;3.41;74.67
12215;BME280;6170;42.206;24.142;2023-01-29T00:16:00;99019.47;;;3.32;75.11
12215;BME280;6170;42.206;24.142;2023-01-29T00:18:28;99024.75;;;3.32;74.96
12215;BME280;6170;42.206;24.142;2023-01-29T00:20:56;99024.94;;;3.48;74.46
12215;BME280;6170;42.206;24.142;2023-01-29T00:23:23;99021.44;;;3.30;74.89
12215;BME280;6170;42.206;24.142;2023-01-29T00:25:50;99028.69;;;3.63;74.45
12215;BME280;6170;42.206;24.142;2023-01-29T00:28:17;99031.22;;;3.65;74.08
12215;BME280;6170;42.206;24.142;2023-01-29T00:30:43;99043.75;;;3.45;75.06
12215;BME280;6170;42.206;24.142;2023-01-29T00:33:10;99036.66;;;3.28;75.89
12215;BME280;6170;42.206;24.142;2023-01-29T00:35:39;99022.06;;;3.42;74.91
12215;BME280;6170;42.206;24.142;2023-01-29T00:38:07;99043.94;;;3.61;74.73
12215;BME280;6170;42.206;24.142;2023-01-29T00:40:36;99039.16;;;3.30;75.96
12215;BME280;6170;42.206;24.142;2023-01-29T00:43:18;99037.66;;;3.27;76.04
12215;BME280;6170;42.206;24.142;2023-01-29T00:46:03;99047.13;;;3.47;75.21
12215;BME280;6170;42.206;24.142;2023-01-29T00:48:31;99053.31;;;3.56;75.75
12215;BME280;6170;42.206;24.142;2023-01-29T00:50:58;99046.59;;;3.61;75.34
12215;BME280;6170;42.206;24.142;2023-01-29T00:53:26;99040.00;;;3.30;75.79
12215;BME280;6170;42.206;24.142;2023-01-29T00:55:54;99043.09;;;3.43;75.79
12215;BME280;6170;42.206;24.142;2023-01-29T00:58:20;99038.91;;;3.41;76.26
12215;BME280;6170;42.206;24.142;2023-01-29T01:00:53;99051.56;;;3.47;76.21
12215;BME280;6170;42.206;24.142;2023-01-29T01:03:20;99044.22;;;3.41;76.22
12215;BME280;6170;42.206;24.142;2023-01-29T01:05:46;99034.00;;;3.28;76.44
12215;BME280;6170;42.206;24.142;2023-01-29T01:08:13;99044.13;;;3.33;76.27
12215;BME280;6170;42.206;24.142;2023-01-29T01:11:03;99042.16;;;3.17;77.10
12215;BME280;6170;42.206;24.142;2023-01-29T01:13:30;99051.03;;;3.43;76.32
12215;BME280;6170;42.206;24.142;2023-01-29T01:15:57;99050.06;;;3.27;77.14
12215;BME280;6170;42.206;24.142;2023-01-29T01:18:24;99050.13;;;3.17;76.98
12215;BME280;6170;42.206;24.142;2023-01-29T01:20:55;99094.78;;;3.47;76.80
12215;BME280;6170;42.206;24.142;2023-01-29T01:23:23;99048.00;;;3.21;76.70
12215;BME280;6170;42.206;24.142;2023-01-29T01:25:50;99053.22;;;3.30;76.28
12215;BME280;6170;42.206;24.142;2023-01-29T01:28:18;99055.75;;;3.32;76.92
12215;BME280;6170;42.206;24.142;2023-01-29T01:30:45;99079.81;;;3.56;76.33
12215;BME280;6170;42.206;24.142;2023-01-29T01:33:11;99058.91;;;3.35;76.58
12215;BME280;6170;42.206;24.142;2023-01-29T01:35:39;99058.00;;;3.27;77.07
12215;BME280;6170;42.206;24.142;2023-01-29T01:38:06;99048.53;;;3.42;76.26
12215;BME280;6170;42.206;24.142;2023-01-29T01:40:33;99065.56;;;3.39;76.47
12215;BME280;6170;42.206;24.142;2023-01-29T01:43:00;99050.06;;;3.44;76.51
12215;BME280;6170;42.206;24.142;2023-01-29T01:45:30;99046.59;;;3.44;75.80
12215;BME280;6170;42.206;24.142;2023-01-29T01:48:00;99047.69;;;3.41;76.51
12215;BME280;6170;42.206;24.142;2023-01-29T01:50:33;99041.44;;;3.42;76.40
12215;BME280;6170;42.206;24.142;2023-01-29T01:53:04;99050.72;;;3.46;76.18
12215;BME280;6170;42.206;24.142;2023-01-29T01:55:33;99046.06;;;3.40;76.44
12215;BME280;6170;42.206;24.142;2023-01-29T01:58:06;99055.13;;;3.38;76.48
12215;BME280;6170;42.206;24.142;2023-01-29T02:00:36;99053.91;;;3.32;76.78
12215;BME280;6170;42.206;24.142;2023-01-29T02:03:04;99057.75;;;3.20;77.78
12215;BME280;6170;42.206;24.142;2023-01-29T02:05:52;99089.34;;;3.49;77.19
12215;BME280;6170;42.206;24.142;2023-01-29T02:08:43;99053.75;;;3.34;76.69
12215;BME280;6170;42.206;24.142;2023-01-29T02:11:29;99055.91;;;3.48;76.67
12215;BME280;6170;42.206;24.142;2023-01-29T02:13:56;99059.88;;;3.16;77.24
12215;BME280;6170;42.206;24.142;2023-01-29T02:16:24;99055.28;;;3.19;77.45
12215;BME280;6170;42.206;24.142;2023-01-29T02:18:51;99053.81;;;3.24;77.41
12215;BME280;6170;42.206;24.142;2023-01-29T02:21:35;99041.53;;;3.05;77.55
12215;BME280;6170;42.206;24.142;2023-01-29T02:24:29;99107.59;;;3.52;77.29
12215;BME280;6170;42.206;24.142;2023-01-29T02:27:06;99057.00;;;3.28;77.97
12215;BME280;6170;42.206;24.142;2023-01-29T02:29:45;99048.88;;;3.11;77.91
12215;BME280;6170;42.206;24.142;2023-01-29T02:32:19;99066.13;;;3.15;78.58
12215;BME280;6170;42.206;24.142;2023-01-29T02:34:57;99063.50;;;3.15;78.46
12215;BME280;6170;42.206;24.142;2023-01-29T02:37:49;99064.41;;;3.24;78.19
12215;BME280;6170;42.206;24.142;2023-01-29T02:40:25;99075.66;;;3.36;77.68
12215;BME280;6170;42.206;24.142;2023-01-29T02:43:00;99061.94;;;3.23;78.22
12215;BME280;6170;42.206;24.142;2023-01-29T02:45:33;99075.34;;;3.11;78.54
12215;BME280;6170;42.206;24.142;2023-01-29T02:48:04;99069.47;;;3.17;78.65
12215;BME280;6170;42.206;24.142;2023-01-29T02:50:36;99072.88;;;3.28;78.63
12215;BME280;6170;42.206;24.142;2023-01-29T02:53:07;99061.47;;;3.27;78.13
12215;BME280;6170;42.206;24.142;2023-01-29T02:55:42;99068.84;;;3.06;78.98
12215;BME280;6170;42.206;24.142;2023-01-29T02:58:14;99070.66;;;3.05;79.61
12215;BME280;6170;42.206;24.142;2023-01-29T03:00:47;99069.84;;;3.05;79.16
12215;BME280;6170;42.206;24.142;2023-01-29T03:03:17;99073.03;;;3.08;79.36
12215;BME280;6170;42.206;24.142;2023-01-29T03:05:51;99070.94;;;3.02;79.89
12215;BME280;6170;42.206;24.142;2023-01-29T03:08:27;99081.03;;;3.16;79.70
12215;BME280;6170;42.206;24.142;2023-01-29T03:11:09;99078.72;;;3.13;79.81
12215;BME280;6170;42.206;24.142;2023-01-29T03:13:42;99088.41;;;2.95;80.14
12215;BME280;6170;42.206;24.142;2023-01-29T03:16:17;99096.41;;;3.13;79.96
12215;BME280;6170;42.206;24.142;2023-01-29T03:18:50;99088.91;;;3.08;80.07
12215;BME280;6170;42.206;24.142;2023-01-29T03:21:23;99091.59;;;3.26;79.57
12215;BME280;6170;42.206;24.142;2023-01-29T03:24:09;99103.16;;;3.25;79.61
12215;BME280;6170;42.206;24.142;2023-01-29T03:26:56;99097.47;;;3.20;80.02
12215;BME280;6170;42.206;24.142;2023-01-29T03:29:41;99102.41;;;3.05;80.25
12215;BME280;6170;42.206;24.142;2023-01-29T03:32:29;99092.53;;;3.07;80.45
12215;BME280;6170;42.206;24.142;2023-01-29T03:34:59;99088.91;;;3.08;80.24
12215;BME280;6170;42.206;24.142;2023-01-29T03:37:32;99088.69;;;3.20;79.90
12215;BME280;6170;42.206;24.142;2023-01-29T03:40:03;99090.31;;;3.03;80.39
12215;BME280;6170;42.206;24.142;2023-01-29T03:42:40;99067.81;;;2.89;80.46
12215;BME280;6170;42.206;24.142;2023-01-29T03:45:14;99102.66;;;3.12;80.63
12215;BME280;6170;42.206;24.142;2023-01-29T03:47:46;99099.47;;;3.36;80.00
12215;BME280;6170;42.206;24.142;2023-01-29T03:50:23;99097.41;;;3.30;79.96
12215;BME280;6170;42.206;24.142;2023-01-29T03:53:03;99097.94;;;3.06;81.07
12215;BME280;6170;42.206;24.142;2023-01-29T03:55:35;99110.88;;;3.19;80.52
12215;BME280;6170;42.206;24.142;2023-01-29T03:58:08;99098.44;;;3.19;80.64
12215;BME280;6170;42.206;24.142;2023-01-29T04:00:44;99104.34;;;3.13;80.46
12215;BME280;6170;42.206;24.142;2023-01-29T04:03:18;99081.22;;;3.05;80.94
12215;BME280;6170;42.206;24.142;2023-01-29T04:05:50;99095.97;;;3.17;80.43
12215;BME280;6170;42.206;24.142;2023-01-29T04:08:20;99103.94;;;3.08;80.98
12215;BME280;6170;42.206;24.142;2023-01-29T04:10:51;99098.44;;;3.19;80.63
12215;BME280;6170;42.206;24.142;2023-01-29T04:13:20;99115.34;;;3.18;80.63
12215;BME280;6170;42.206;24.142;2023-01-29T04:15:53;99118.13;;;3.16;80.84
12215;BME280;6170;42.206;24.142;2023-01-29T04:18:22;99119.38;;;3.12;81.01
12215;BME280;6170;42.206;24.142;2023-01-29T04:20:49;99117.06;;;3.09;80.28
12215;BME280;6170;42.206;24.142;2023-01-29T04:23:20;99109.03;;;3.19;80.09
12215;BME280;6170;42.206;24.142;2023-01-29T04:26:01;99118.84;;;3.09;80.55
12215;BME280;6170;42.206;24.142;2023-01-29T04:28:48;99116.94;;;3.29;79.95
12215;BME280;6170;42.206;24.142;2023-01-29T04:31:19;99123.63;;;3.23;79.62
12215;BME280;6170;42.206;24.142;2023-01-29T04:33:58;99117.31;;;3.34;78.93
12215;BME280;6170;42.206;24.142;2023-01-29T04:36:34;99105.88;;;3.33;79.43
12215;BME280;6170;42.206;24.142;2023-01-29T04:39:09;99125.97;;;3.36;79.52
12215;BME280;6170;42.206;24.142;2023-01-29T04:41:41;99121.75;;;3.15;79.64
12215;BME280;6170;42.206;24.142;2023-01-29T04:44:17;99114.28;;;3.01;79.82
12215;BME280;6170;42.206;24.142;2023-01-29T04:46:48;99113.53;;;3.19;79.03
12215;BME280;6170;42.206;24.142;2023-01-29T04:49:31;99112.91;;;2.97;79.45
12215;BME280;6170;42.206;24.142;2023-01-29T04:52:02;99129.34;;;3.01;79.33
12215;BME280;6170;42.206;24.142;2023-01-29T04:54:43;99126.28;;;3.23;78.52
12215;BME280;6170;42.206;24.142;2023-01-29T04:57:17;99176.13;;;3.37;79.24
12215;BME280;6170;42.206;24.142;2023-01-29T04:59:50;99137.31;;;2.91;79.72
12215;BME280;6170;42.206;24.142;2023-01-29T05:02:21;99128.13;;;2.95;79.95
12215;BME280;6170;42.206;24.142;2023-01-29T05:04:51;99128.81;;;2.88;79.56
12215;BME280;6170;42.206;24.142;2023-01-29T05:07:20;99133.97;;;2.89;80.28
12215;BME280;6170;42.206;24.142;2023-01-29T05:09:49;99145.38;;;2.99;79.52
12215;BME280;6170;42.206;24.142;2023-01-29T05:12:17;99136.31;;;2.92;79.79
12215;BME280;6170;42.206;24.142;2023-01-29T05:14:44;99146.47;;;2.97;79.70
12215;BME280;6170;42.206;24.142;2023-01-29T05:17:15;99134.81;;;2.90;79.94
12215;BME280;6170;42.206;24.142;2023-01-29T05:19:42;99150.03;;;3.15;79.14
12215;BME280;6170;42.206;24.142;2023-01-29T05:22:12;99147.19;;;2.99;79.39
12215;BME280;6170;42.206;24.142;2023-01-29T05:24:40;99152.66;;;3.15;78.88
12215;BME280;6170;42.206;24.142;2023-01-29T05:27:11;99156.06;;;3.07;79.62
12215;BME280;6170;42.206;24.142;2023-01-29T05:29:57;99149.69;;;3.00;79.08
12215;BME280;6170;42.206;24.142;2023-01-29T05:32:24;99162.63;;;3.03;79.15
12215;BME280;6170;42.206;24.142;2023-01-29T05:34:51;99158.16;;;3.04;79.46
12215;BME280;6170;42.206;24.142;2023-01-29T05:37:19;99164.94;;;3.16;78.15
12215;BME280;6170;42.206;24.142;2023-01-29T05:39:46;99161.88;;;3.11;78.58
12215;BME280;6170;42.206;24.142;2023-01-29T05:42:12;99169.75;;;2.93;79.08
12215;BME280;6170;42.206;24.142;2023-01-29T05:44:39;99170.88;;;3.00;79.68
12215;BME280;6170;42.206;24.142;2023-01-29T05:47:06;99164.97;;;3.06;79.80
12215;BME280;6170;42.206;24.142;2023-01-29T05:49:32;99116.63;;;2.77;79.57
12215;BME280;6170;42.206;24.142;2023-01-29T05:51:59;99179.00;;;3.16;79.21
12215;BME280;6170;42.206;24.142;2023-01-29T05:54:27;99170.94;;;3.18;78.76
12215;BME280;6170;42.206;24.142;2023-01-29T05:56:54;99178.44;;;3.23;78.93
12215;BME280;6170;42.206;24.142;2023-01-29T05:59:21;99165.44;;;2.92;80.10
12215;BME280;6170;42.206;24.142;2023-01-29T06:01:48;99182.09;;;3.12;79.58
12215;BME280;6170;42.206;24.142;2023-01-29T06:04:14;99195.97;;;3.24;79.75
12215;BME280;6170;42.206;24.142;2023-01-29T06:06:41;99189.25;;;3.29;79.56
12215;BME280;6170;42.206;24.142;2023-01-29T06:09:09;99194.25;;;3.32;79.40
12215;BME280;6170;42.206;24.142;2023-01-29T06:11:37;99197.84;;;3.13;79.57
12215;BME280;6170;42.206;24.142;2023-01-29T06:14:04;99206.97;;;3.29;79.65
12215;BME280;6170;42.206;24.142;2023-01-29T06:16:31;99218.97;;;3.23;79.78
12215;BME280;6170;42.206;24.142;2023-01-29T06:18:57;99211.91;;;3.14;79.88
12215;BME280;6170;42.206;24.142;2023-01-29T06:21:24;99197.84;;;3.13;79.23
12215;BME280;6170;42.206;24.142;2023-01-29T06:23:51;99214.25;;;3.27;79.91
12215;BME280;6170;42.206;24.142;2023-01-29T06:26:18;99225.34;;;3.67;78.35
12215;BME280;6170;42.206;24.142;2023-01-29T06:28:49;99227.44;;;3.63;78.59
12215;BME280;6170;42.206;24.142;2023-01-29T06:31:16;99224.50;;;3.67;78.02
12215;BME280;6170;42.206;24.142;2023-01-29T06:33:43;99202.00;;;3.53;77.60
12215;BME280;6170;42.206;24.142;2023-01-29T06:36:10;99225.13;;;3.78;77.19
12215;BME280;6170;42.206;24.142;2023-01-29T06:38:37;99235.03;;;3.76;77.70
12215;BME280;6170;42.206;24.142;2023-01-29T06:41:08;99258.00;;;3.85;77.28
12215;BME280;6170;42.206;24.142;2023-01-29T06:43:35;99239.09;;;3.80;77.36
12215;BME280;6170;42.206;24.142;2023-01-29T06:46:06;99237.81;;;3.84;77.80
12215;BME280;6170;42.206;24.142;2023-01-29T06:48:33;99242.78;;;3.87;77.79
12215;BME280;6170;42.206;24.142;2023-01-29T06:51:01;99229.06;;;3.74;77.48
12215;BME280;6170;42.206;24.142;2023-01-29T06:53:28;99221.03;;;3.66;77.62
12215;BME280;6170;42.206;24.142;2023-01-29T06:55:55;99239.75;;;3.82;77.45
12215;BME280;6170;42.206;24.142;2023-01-29T06:58:22;99249.78;;;3.88;78.08
12215;BME280;6170;42.206;24.142;2023-01-29T07:00:48;99256.34;;;3.84;78.11
12215;BME280;6170;42.206;24.142;2023-01-29T07:03:17;99259.44;;;3.80;78.75
12215;BME280;6170;42.206;24.142;2023-01-29T07:05:49;99254.25;;;3.88;78.19
12215;BME280;6170;42.206;24.142;2023-01-29T07:08:16;99251.00;;;4.12;77.95
12215;BME280;6170;42.206;24.142;2023-01-29T07:10:43;99257.84;;;3.87;78.10
12215;BME280;6170;42.206;24.142;2023-01-29T07:13:10;99256.44;;;3.92;78.33
12215;BME280;6170;42.206;24.142;2023-01-29T07:15:37;99242.97;;;4.03;78.75
12215;BME280;6170;42.206;24.142;2023-01-29T07:18:03;99258.75;;;4.23;78.39
12215;BME280;6170;42.206;24.142;2023-01-29T07:20:38;99238.66;;;4.02;79.03
12215;BME280;6170;42.206;24.142;2023-01-29T07:23:06;99272.22;;;4.12;79.24
12215;BME280;6170;42.206;24.142;2023-01-29T07:25:33;99265.50;;;4.35;78.74
12215;BME280;6170;42.206;24.142;2023-01-29T07:27:59;99259.44;;;4.25;79.01
12215;BME280;6170;42.206;24.142;2023-01-29T07:30:26;99268.47;;;4.32;78.73
12215;BME280;6170;42.206;24.142;2023-01-29T07:32:53;99272.88;;;4.41;78.63
12215;BME280;6170;42.206;24.142;2023-01-29T07:35:20;99285.34;;;4.13;79.63
12215;BME280;6170;42.206;24.142;2023-01-29T07:37:49;99283.53;;;4.31;79.21
12215;BME280;6170;42.206;24.142;2023-01-29T07:40:17;99281.88;;;4.30;79.66
12215;BME280;6170;42.206;24.142;2023-01-29T07:42:43;99275.06;;;4.28;80.19
12215;BME280;6170;42.206;24.142;2023-01-29T07:45:11;99276.34;;;4.24;80.46
12215;BME280;6170;42.206;24.142;2023-01-29T07:47:38;99279.59;;;4.18;80.87
12215;BME280;6170;42.206;24.142;2023-01-29T07:50:05;99298.56;;;4.40;80.54
12215;BME280;6170;42.206;24.142;2023-01-29T07:52:32;99284.41;;;3.77;82.89
12215;BME280;6170;42.206;24.142;2023-01-29T07:55:00;99283.75;;;4.02;81.81
12215;BME280;6170;42.206;24.142;2023-01-29T07:57:27;99335.84;;;4.57;82.00
12215;BME280;6170;42.206;24.142;2023-01-29T07:59:54;99291.50;;;4.31;82.36
12215;BME280;6170;42.206;24.142;2023-01-29T08:02:21;99286.44;;;4.38;81.83
12215;BME280;6170;42.206;24.142;2023-01-29T08:04:48;99300.97;;;4.51;81.41
12215;BME280;6170;42.206;24.142;2023-01-29T08:07:15;99299.16;;;4.70;82.01
12215;BME280;6170;42.206;24.142;2023-01-29T08:09:41;99304.84;;;4.75;81.34
12215;BME280;6170;42.206;24.142;2023-01-29T08:12:10;99294.63;;;4.62;81.95
12215;BME280;6170;42.206;24.142;2023-01-29T08:14:36;99303.72;;;4.60;82.12
12215;BME280;6170;42.206;24.142;2023-01-29T08:17:03;99295.38;;;4.90;81.60
12215;BME280;6170;42.206;24.142;2023-01-29T08:19:30;99297.25;;;4.80;80.97
12215;BME280;6170;42.206;24.142;2023-01-29T08:21:56;99290.84;;;5.08;79.99
12215;BME280;6170;42.206;24.142;2023-01-29T08:24:23;99292.63;;;5.25;79.27
12215;BME280;6170;42.206;24.142;2023-01-29T08:26:50;99301.97;;;4.86;80.51
12215;BME280;6170;42.206;24.142;2023-01-29T08:29:18;99307.56;;;4.83;80.40
12215;BME280;6170;42.206;24.142;2023-01-29T08:31:45;99307.53;;;5.01;79.78
12215;BME280;6170;42.206;24.142;2023-01-29T08:34:12;99313.88;;;5.00;80.07
12215;BME280;6170;42.206;24.142;2023-01-29T08:36:38;99315.38;;;5.02;80.67
12215;BME280;6170;42.206;24.142;2023-01-29T08:39:05;99309.13;;;5.37;80.92
12215;BME280;6170;42.206;24.142;2023-01-29T08:41:32;99359.44;;;5.56;79.05
12215;BME280;6170;42.206;24.142;2023-01-29T08:43:59;99317.00;;;5.47;78.77
12215;BME280;6170;42.206;24.142;2023-01-29T08:46:30;99309.88;;;5.21;79.12
12215;BME280;6170;42.206;24.142;2023-01-29T08:48:56;99288.22;;;5.34;79.86
12215;BME280;6170;42.206;24.142;2023-01-29T08:51:24;99315.28;;;5.63;79.61
12215;BME280;6170;42.206;24.142;2023-01-29T08:53:52;99304.56;;;5.47;78.69
12215;BME280;6170;42.206;24.142;2023-01-29T08:56:18;99317.56;;;5.32;79.24
12215;BME280;6170;42.206;24.142;2023-01-29T08:58:45;99305.66;;;5.36;80.23
12215;BME280;6170;42.206;24.142;2023-01-29T09:01:13;99323.16;;;5.73;80.21
12215;BME280;6170;42.206;24.142;2023-01-29T09:03:41;99315.31;;;5.71;78.77
12215;BME280;6170;42.206;24.142;2023-01-29T09:06:10;99317.72;;;5.82;78.76
12215;BME280;6170;42.206;24.142;2023-01-29T09:08:38;99317.94;;;5.89;78.19
12215;BME280;6170;42.206;24.142;2023-01-29T09:11:05;99303.72;;;6.06;78.53
12215;BME280;6170;42.206;24.142;2023-01-29T09:13:32;99300.00;;;6.49;79.72
12215;BME280;6170;42.206;24.142;2023-01-29T09:15:59;99293.00;;;6.40;78.08
12215;BME280;6170;42.206;24.142;2023-01-29T09:18:26;99308.00;;;6.82;76.49
12215;BME280;6170;42.206;24.142;2023-01-29T09:20:55;99310.38;;;6.85;77.16
12215;BME280;6170;42.206;24.142;2023-01-29T09:23:22;99312.69;;;6.88;76.88
12215;BME280;6170;42.206;24.142;2023-01-29T09:25:49;99309.72;;;6.99;77.11
12215;BME280;6170;42.206;24.142;2023-01-29T09:28:15;99334.84;;;7.37;76.42
12215;BME280;6170;42.206;24.142;2023-01-29T09:30:43;99292.53;;;7.26;74.14
12215;BME280;6170;42.206;24.142;2023-01-29T09:33:10;99300.66;;;7.56;72.66
12215;BME280;6170;42.206;24.142;2023-01-29T09:35:39;99296.19;;;7.25;73.59
12215;BME280;6170;42.206;24.142;2023-01-29T09:38:08;99291.53;;;7.10;73.61
12215;BME280;6170;42.206;24.142;2023-01-29T09:40:46;99289.03;;;7.09;72.89
12215;BME280;6170;42.206;24.142;2023-01-29T09:43:18;99249.09;;;6.60;72.70
12215;BME280;6170;42.206;24.142;2023-01-29T09:45:52;99284.06;;;6.90;72.68
12215;BME280;6170;42.206;24.142;2023-01-29T09:48:22;99286.88;;;7.29;72.06
12215;BME280;6170;42.206;24.142;2023-01-29T09:50:53;99289.03;;;7.25;72.06
12215;BME280;6170;42.206;24.142;2023-01-29T09:53:28;99281.03;;;7.17;72.17
12215;BME280;6170;42.206;24.142;2023-01-29T09:56:01;99280.53;;;7.30;71.76
12215;BME280;6170;42.206;24.142;2023-01-29T09:58:31;99259.41;;;6.47;73.30
12215;BME280;6170;42.206;24.142;2023-01-29T10:01:07;99270.38;;;6.68;73.27
12215;BME280;6170;42.206;24.142;2023-01-29T10:06:48;99270.66;;;7.46;70.51
12215;BME280;6170;42.206;24.142;2023-01-29T10:09:42;99257.25;;;6.75;71.41
12215;BME280;6170;42.206;24.142;2023-01-29T10:12:26;99252.63;;;6.77;72.33
12215;BME280;6170;42.206;24.142;2023-01-29T10:15:01;99288.06;;;6.86;72.35
12215;BME280;6170;42.206;24.142;2023-01-29T10:17:53;99247.78;;;6.81;72.58
12215;BME280;6170;42.206;24.142;2023-01-29T10:20:40;99243.72;;;7.17;70.41
12215;BME280;6170;42.206;24.142;2023-01-29T10:23:17;99253.97;;;7.52;70.62
12215;BME280;6170;42.206;24.142;2023-01-29T10:25:48;99241.75;;;7.11;70.92
12215;BME280;6170;42.206;24.142;2023-01-29T10:28:17;99241.31;;;7.93;70.40
12215;BME280;6170;42.206;24.142;2023-01-29T10:30:48;99244.66;;;7.48;69.05
12215;BME280;6170;42.206;24.142;2023-01-29T10:33:24;99234.50;;;7.91;69.42
12215;BME280;6170;42.206;24.142;2023-01-29T10:35:54;99245.22;;;8.13;70.10
12215;BME280;6170;42.206;24.142;2023-01-29T10:38:33;99232.25;;;8.02;68.25
12215;BME280;6170;42.206;24.142;2023-01-29T10:41:16;99232.31;;;7.55;67.97
12215;BME280;6170;42.206;24.142;2023-01-29T10:43:53;99227.22;;;7.77;69.39
12215;BME280;6170;42.206;24.142;2023-01-29T10:46:33;99225.75;;;7.74;68.60
12215;BME280;6170;42.206;24.142;2023-01-29T10:49:11;99223.03;;;7.43;68.52
12215;BME280;6170;42.206;24.142;2023-01-29T10:51:53;99186.25;;;7.22;68.96
12215;BME280;6170;42.206;24.142;2023-01-29T10:54:38;99218.91;;;7.72;68.00
12215;BME280;6170;42.206;24.142;2023-01-29T10:57:15;99218.53;;;7.36;67.73
12215;BME280;6170;42.206;24.142;2023-01-29T10:59:52;99217.16;;;7.56;67.92
12215;BME280;6170;42.206;24.142;2023-01-29T11:02:23;99206.31;;;7.49;68.39
12215;BME280;6170;42.206;24.142;2023-01-29T11:04:50;99209.25;;;8.01;66.79
12215;BME280;6170;42.206;24.142;2023-01-29T11:07:19;99201.53;;;8.06;68.39
12215;BME280;6170;42.206;24.142;2023-01-29T11:09:53;99202.56;;;8.28;67.20
12215;BME280;6170;42.206;24.142;2023-01-29T11:12:25;99202.50;;;8.44;65.85
12215;BME280;6170;42.206;24.142;2023-01-29T11:14:58;99181.56;;;8.25;65.68
12215;BME280;6170;42.206;24.142;2023-01-29T11:17:28;99178.72;;;8.04;67.07
12215;BME280;6170;42.206;24.142;2023-01-29T11:19:54;99201.03;;;7.80;66.77
12215;BME280;6170;42.206;24.142;2023-01-29T11:22:23;99190.75;;;8.00;67.12
12215;BME280;6170;42.206;24.142;2023-01-29T11:25:09;99188.91;;;8.23;67.01
12215;BME280;6170;42.206;24.142;2023-01-29T11:27:43;99197.31;;;8.43;65.08
12215;BME280;6170;42.206;24.142;2023-01-29T11:30:28;99175.03;;;8.28;65.59
12215;BME280;6170;42.206;24.142;2023-01-29T11:33:04;99191.19;;;7.81;65.56
12215;BME280;6170;42.206;24.142;2023-01-29T11:35:32;99165.25;;;8.20;65.72
12215;BME280;6170;42.206;24.142;2023-01-29T11:38:07;99174.69;;;8.08;65.36
12215;BME280;6170;42.206;24.142;2023-01-29T11:40:38;99175.44;;;8.47;64.40
12215;BME280;6170;42.206;24.142;2023-01-29T11:43:27;99174.53;;;8.01;63.54
12215;BME280;6170;42.206;24.142;2023-01-29T11:45:57;99160.38;;;8.24;62.55
12215;BME280;6170;42.206;24.142;2023-01-29T11:48:38;99158.31;;;8.11;62.90
12215;BME280;6170;42.206;24.142;2023-01-29T11:51:07;99161.56;;;7.37;63.15
12215;BME280;6170;42.206;24.142;2023-01-29T11:53:37;99208.56;;;7.30;64.24
12215;BME280;6170;42.206;24.142;2023-01-29T11:56:16;99166.66;;;7.07;63.79
12215;BME280;6170;42.206;24.142;2023-01-29T11:58:46;99162.72;;;6.79;63.87
12215;BME280;6170;42.206;24.142;2023-01-29T12:01:17;99163.47;;;7.12;63.80
12215;BME280;6170;42.206;24.142;2023-01-29T12:03:50;99158.84;;;7.45;63.15
12215;BME280;6170;42.206;24.142;2023-01-29T12:06:21;99160.28;;;7.25;63.90
12215;BME280;6170;42.206;24.142;2023-01-29T12:08:54;99161.19;;;7.48;63.56
12215;BME280;6170;42.206;24.142;2023-01-29T12:11:28;99146.72;;;6.79;63.26
12215;BME280;6170;42.206;24.142;2023-01-29T12:13:56;99197.41;;;7.34;63.88
12215;BME280;6170;42.206;24.142;2023-01-29T12:16:27;99127.22;;;6.87;64.35
12215;BME280;6170;42.206;24.142;2023-01-29T12:19:04;99144.84;;;7.51;63.16
12215;BME280;6170;42.206;24.142;2023-01-29T12:21:38;99143.97;;;7.19;62.88
12215;BME280;6170;42.206;24.142;2023-01-29T12:24:19;99127.22;;;6.95;62.58
12215;BME280;6170;42.206;24.142;2023-01-29T12:26:53;99139.94;;;6.60;64.16
12215;BME280;6170;42.206;24.142;2023-01-29T12:29:32;99137.25;;;6.60;63.19
12215;BME280;6170;42.206;24.142;2023-01-29T12:32:06;99128.44;;;6.68;63.89
12215;BME280;6170;42.206;24.142;2023-01-29T12:34:43;99130.91;;;6.77;64.33
12215;BME280;6170;42.206;24.142;2023-01-29T12:37:12;99174.69;;;6.75;64.17
12215;BME280;6170;42.206;24.142;2023-01-29T12:39:42;99130.09;;;6.69;64.28
12215;BME280;6170;42.206;24.142;2023-01-29T12:42:12;99135.41;;;6.69;63.93
12215;BME280;6170;42.206;24.142;2023-01-29T12:44:44;99137.44;;;6.59;64.33
12215;BME280;6170;42.206;24.142;2023-01-29T12:47:16;99121.13;;;6.62;64.42
12215;BME280;6170;42.206;24.142;2023-01-29T12:49:50;99129.25;;;6.85;64.29
12215;BME280;6170;42.206;24.142;2023-01-29T12:52:22;99134.50;;;7.09;64.25
12215;BME280;6170;42.206;24.142;2023-01-29T12:54:56;99136.56;;;6.83;64.07
12215;BME280;6170;42.206;24.142;2023-01-29T12:57:31;99128.59;;;6.74;64.32
12215;BME280;6170;42.206;24.142;2023-01-29T13:00:05;99124.44;;;6.80;63.13
12215;BME280;6170;42.206;24.142;2023-01-29T13:02:36;99137.97;;;6.54;63.74
12215;BME280;6170;42.206;24.142;2023-01-29T13:05:15;99135.41;;;6.85;64.43
12215;BME280;6170;42.206;24.142;2023-01-29T13:07:46;99136.44;;;6.52;64.72
12215;BME280;6170;42.206;24.142;2023-01-29T13:10:17;99140.13;;;6.35;65.38
12215;BME280;6170;42.206;24.142;2023-01-29T13:12:51;99192.34;;;6.76;65.13
12215;BME280;6170;42.206;24.142;2023-01-29T13:15:25;99138.94;;;6.29;66.00
12215;BME280;6170;42.206;24.142;2023-01-29T13:17:57;99148.59;;;6.22;66.04
12215;BME280;6170;42.206;24.142;2023-01-29T13:20:27;99141.78;;;6.36;66.27
12215;BME280;6170;42.206;24.142;2023-01-29T13:22:58;99163.38;;;6.24;65.91
12215;BME280;6170;42.206;24.142;2023-01-29T13:25:28;99159.59;;;6.19;66.78
12215;BME280;6170;42.206;24.142;2023-01-29T13:27:55;99146.94;;;6.21;65.60
12215;BME280;6170;42.206;24.142;2023-01-29T13:30:29;99151.09;;;6.23;65.81
12215;BME280;6170;42.206;24.142;2023-01-29T13:32:59;99185.53;;;6.65;65.80
12215;BME280;6170;42.206;24.142;2023-01-29T13:35:35;99149.25;;;6.16;65.67